createdAt,value
2023-06-10T00:02:08.117Z,100018.41
2023-06-10T00:04:35.718Z,100014.19
2023-06-10T00:07:03.658Z,100018.13
2023-06-10T00:09:30.729Z,100018.19
2023-06-10T00:12:01.017Z,100024.94
2023-06-10T00:14:27.878Z,100027.19
2023-06-10T00:16:54.650Z,100027.41
2023-06-10T00:19:26.794Z,100033.31
2023-06-10T00:21:53.697Z,100025.56
2023-06-10T00:24:20.619Z,100020.97
2023-06-10T00:26:47.673Z,100027.31
2023-06-10T00:29:15.265Z,100026.28
2023-06-10T00:31:42.257Z,100028.69
2023-06-10T00:34:09.383Z,100029.41
2023-06-10T00:36:39.420Z,100031.16
2023-06-10T00:39:06.305Z,100037.50
2023-06-10T00:41:35.061Z,100032.88
2023-06-10T00:44:02.044Z,100037.00
2023-06-10T00:46:29.169Z,100037.06
2023-06-10T00:48:56.444Z,100026.38
2023-06-10T00:51:23.796Z,100030.31
2023-06-10T00:53:51.169Z,100037.34
2023-06-10T00:56:18.248Z,100028.25
2023-06-10T00:58:45.756Z,100032.88
2023-06-10T01:01:13.813Z,100031.97
2023-06-10T01:03:41.091Z,100036.22
2023-06-10T01:06:15.464Z,100040.09
2023-06-10T01:08:53.108Z,100036.72
2023-06-10T01:11:28.548Z,100037.53
2023-06-10T01:13:57.199Z,100030.66
2023-06-10T01:16:24.700Z,100033.34
2023-06-10T01:18:53.499Z,100027.44
2023-06-10T01:21:27.854Z,100023.56
2023-06-10T01:23:56.924Z,100028.22
2023-06-10T01:26:29.768Z,100022.75
2023-06-10T01:29:07.024Z,100031.78
2023-06-10T01:31:40.528Z,100029.69
2023-06-10T01:34:11.861Z,100030.91
2023-06-10T01:36:41.624Z,100037.69
2023-06-10T01:39:10.025Z,100033.47
2023-06-10T01:41:37.589Z,100030.16
2023-06-10T01:44:04.850Z,100033.69
2023-06-10T01:46:31.668Z,100034.19
2023-06-10T01:48:58.601Z,100025.50
2023-06-10T01:51:25.673Z,100026.19
2023-06-10T01:53:52.607Z,100025.16
2023-06-10T01:56:21.720Z,100024.38
2023-06-10T01:58:48.584Z,100026.69
2023-06-10T02:01:15.759Z,100020.34
2023-06-10T02:03:42.705Z,100018.47
2023-06-10T02:06:09.685Z,100013.88
2023-06-10T02:08:36.633Z,100012.63
2023-06-10T02:11:03.407Z,100015.94
2023-06-10T02:13:30.695Z,100016.44
2023-06-10T02:15:58.088Z,100001.38
2023-06-10T02:18:29.750Z,100002.09
2023-06-10T02:20:56.526Z,100006.88
2023-06-10T02:23:23.392Z,100008.44
2023-06-10T02:25:50.551Z,100009.88
2023-06-10T02:28:18.443Z,100009.28
2023-06-10T02:30:46.206Z,100008.63
2023-06-10T02:33:13.082Z,100003.47
2023-06-10T02:35:41.101Z,100000.44
2023-06-10T02:38:08.491Z,100006.97
2023-06-10T02:40:35.990Z,99994.25
2023-06-10T02:43:02.959Z,100001.53
2023-06-10T02:45:29.892Z,100002.75
2023-06-10T02:47:58.740Z,100001.69
2023-06-10T02:50:25.883Z,100003.34
2023-06-10T02:53:07.461Z,99996.16
2023-06-10T02:55:36.551Z,100001.31
2023-06-10T02:58:06.523Z,100005.44
2023-06-10T03:00:34.370Z,100007.06
2023-06-10T03:03:04.501Z,100005.88
2023-06-10T03:05:36.244Z,100012.59
2023-06-10T03:08:05.427Z,100008.25
2023-06-10T03:10:35.030Z,100009.97
2023-06-10T03:13:02.959Z,100015.78
2023-06-10T03:15:33.850Z,100022.03
2023-06-10T03:18:03.492Z,100023.94
2023-06-10T03:20:31.079Z,100020.44
2023-06-10T03:22:58.312Z,100024.50
2023-06-10T03:25:27.333Z,100023.03
2023-06-10T03:27:54.886Z,100025.28
2023-06-10T03:30:21.728Z,100034.31
2023-06-10T03:32:51.077Z,100034.81
2023-06-10T03:35:20.809Z,100037.78
2023-06-10T03:37:47.675Z,100040.88
2023-06-10T03:40:14.654Z,100039.22
2023-06-10T03:42:45.370Z,100046.69
2023-06-10T03:45:14.618Z,100050.41
2023-06-10T03:47:42.040Z,100045.47
2023-06-10T03:50:12.422Z,100045.00
2023-06-10T03:52:42.188Z,100056.75
2023-06-10T03:55:12.870Z,100058.97
2023-06-10T03:57:41.822Z,100058.09
2023-06-10T04:00:13.147Z,100061.84
2023-06-10T04:02:47.679Z,100062.22
2023-06-10T04:05:22.998Z,100059.06
2023-06-10T04:07:49.972Z,100063.88
2023-06-10T04:10:17.092Z,100064.09
2023-06-10T04:12:44.020Z,100068.44
2023-06-10T04:15:12.184Z,100073.28
2023-06-10T04:17:39.524Z,100073.78
2023-06-10T04:20:08.768Z,100070.50
2023-06-10T04:22:37.511Z,100073.59
2023-06-10T04:25:04.622Z,100077.16
2023-06-10T04:27:32.008Z,100074.81
2023-06-10T04:29:58.861Z,100074.19
2023-06-10T04:32:25.781Z,100077.78
2023-06-10T04:34:52.566Z,100080.63
2023-06-10T04:37:19.533Z,100083.09
2023-06-10T04:39:46.410Z,100083.94
2023-06-10T04:42:13.317Z,100080.94
2023-06-10T04:44:41.734Z,100086.66
2023-06-10T04:47:08.909Z,100092.03
2023-06-10T04:49:36.856Z,100081.16
2023-06-10T04:52:06.065Z,100086.56
2023-06-10T04:54:36.756Z,100086.19
2023-06-10T04:57:04.000Z,100089.66
2023-06-10T04:59:31.165Z,100086.91
2023-06-10T05:01:58.098Z,100090.84
2023-06-10T05:04:24.878Z,100089.56
2023-06-10T05:06:51.627Z,100081.16
2023-06-10T05:09:18.388Z,100083.31
2023-06-10T05:11:45.965Z,100084.03
2023-06-10T05:14:12.873Z,100083.06
2023-06-10T05:16:39.845Z,100078.44
2023-06-10T05:19:08.565Z,100088.31
2023-06-10T05:21:35.828Z,100076.91
2023-06-10T05:24:03.294Z,100076.75
2023-06-10T05:26:32.694Z,100074.56
2023-06-10T05:28:59.953Z,100076.72
2023-06-10T05:31:27.382Z,100074.16
2023-06-10T05:33:54.385Z,100075.06
2023-06-10T05:36:21.496Z,100076.59
2023-06-10T05:38:48.352Z,100077.69
2023-06-10T05:41:15.101Z,100082.69
2023-06-10T05:43:42.206Z,100081.22
2023-06-10T05:46:09.195Z,100083.66
2023-06-10T05:48:36.072Z,100083.22
2023-06-10T05:51:03.016Z,100089.41
2023-06-10T05:53:29.715Z,100079.31
2023-06-10T05:55:58.662Z,100084.03
2023-06-10T05:58:25.943Z,100081.09
2023-06-10T06:00:52.715Z,100082.50
2023-06-10T06:03:20.186Z,100079.06
2023-06-10T06:05:47.373Z,100077.81
2023-06-10T06:08:19.575Z,100066.28
2023-06-10T06:10:48.907Z,100065.47
2023-06-10T06:13:16.220Z,100074.38
2023-06-10T06:15:43.442Z,100074.97
2023-06-10T06:18:10.313Z,100074.81
2023-06-10T06:20:37.239Z,100069.03
2023-06-10T06:23:03.914Z,100071.84
2023-06-10T06:25:30.684Z,100071.97
2023-06-10T06:27:57.814Z,100074.91
2023-06-10T06:30:24.515Z,100076.28
2023-06-10T06:32:52.953Z,100072.00
2023-06-10T06:35:20.049Z,100075.09
2023-06-10T06:37:46.830Z,100075.13
2023-06-10T06:40:25.828Z,100078.19
2023-06-10T06:42:52.649Z,100074.69
2023-06-10T06:45:54.509Z,100075.34
2023-06-10T06:48:21.949Z,100071.34
2023-06-10T06:50:49.362Z,100079.28
2023-06-10T06:53:16.239Z,100071.66
2023-06-10T06:55:43.008Z,100078.47
2023-06-10T06:58:09.729Z,100079.94
2023-06-10T07:00:36.532Z,100080.66
2023-06-10T07:03:03.638Z,100088.47
2023-06-10T07:05:32.061Z,100083.66
2023-06-10T07:07:59.023Z,100083.53
2023-06-10T07:10:27.032Z,100086.44
2023-06-10T07:12:54.408Z,100085.44
2023-06-10T07:15:21.568Z,100075.94
2023-06-10T07:17:48.606Z,100078.41
2023-06-10T07:20:16.132Z,100070.94
2023-06-10T07:22:43.446Z,100070.88
2023-06-10T07:25:10.871Z,100065.97
2023-06-10T07:27:38.370Z,100068.53
2023-06-10T07:30:07.954Z,100063.31
2023-06-10T07:32:35.028Z,100067.28
2023-06-10T07:35:02.163Z,100060.31
2023-06-10T07:37:28.965Z,100071.63
2023-06-10T07:39:57.219Z,100074.47
2023-06-10T07:42:24.015Z,100072.09
2023-06-10T07:44:50.765Z,100072.78
2023-06-10T07:47:17.780Z,100067.94
2023-06-10T07:49:44.706Z,100074.88
2023-06-10T07:52:11.401Z,100063.97
2023-06-10T07:54:38.174Z,100070.38
2023-06-10T07:57:05.758Z,100070.22
2023-06-10T07:59:32.515Z,100067.19
2023-06-10T08:01:59.309Z,100070.78
2023-06-10T08:04:26.092Z,100079.09
2023-06-10T08:06:52.888Z,100077.03
2023-06-10T08:09:19.584Z,100078.97
2023-06-10T08:11:48.405Z,100083.50
2023-06-10T08:14:15.181Z,100082.59
2023-06-10T08:16:42.779Z,100078.25
2023-06-10T08:19:10.349Z,100080.28
2023-06-10T08:21:40.867Z,100071.78
2023-06-10T08:24:08.564Z,100075.78
2023-06-10T08:26:35.675Z,100079.56
2023-06-10T08:29:02.558Z,100072.34
2023-06-10T08:31:29.384Z,100086.66
2023-06-10T08:33:56.320Z,100077.19
2023-06-10T08:36:23.440Z,100082.56
2023-06-10T08:38:50.168Z,100087.13
2023-06-10T08:41:19.558Z,100077.28
2023-06-10T08:44:04.747Z,100076.78
2023-06-10T08:46:33.883Z,100078.16
2023-06-10T08:49:05.220Z,100082.00
2023-06-10T08:51:35.794Z,100081.53
2023-06-10T08:54:06.900Z,100071.72
2023-06-10T08:56:40.336Z,100075.47
2023-06-10T08:59:07.849Z,100077.69
2023-06-10T09:01:35.215Z,100077.09
2023-06-10T09:04:03.386Z,100079.50
2023-06-10T09:06:30.501Z,100076.44
2023-06-10T09:08:59.775Z,100075.22
2023-06-10T09:11:28.604Z,100072.44
2023-06-10T09:13:55.427Z,100080.66
2023-06-10T09:16:22.304Z,100074.53
2023-06-10T09:18:49.786Z,100068.56
2023-06-10T09:21:16.678Z,100063.75
2023-06-10T09:23:45.240Z,100073.28
2023-06-10T09:26:12.696Z,100065.03
2023-06-10T09:28:40.396Z,100069.78
2023-06-10T09:31:10.844Z,100058.56
2023-06-10T09:33:41.937Z,100058.25
2023-06-10T09:36:08.869Z,100057.00
2023-06-10T09:38:36.405Z,100051.53
2023-06-10T09:41:04.402Z,100056.84
2023-06-10T09:43:45.175Z,100056.75
2023-06-10T09:46:19.081Z,100054.94
2023-06-10T09:48:47.972Z,100048.22
2023-06-10T09:51:16.216Z,100054.19
2023-06-10T09:53:46.562Z,100046.25
2023-06-10T09:56:13.668Z,100049.03
2023-06-10T09:58:43.274Z,100056.44
2023-06-10T10:01:10.739Z,100053.63
2023-06-10T10:03:48.957Z,100053.53
2023-06-10T10:06:18.066Z,100050.59
2023-06-10T10:08:46.441Z,100048.97
2023-06-10T10:11:14.016Z,100047.78
2023-06-10T10:13:41.564Z,100041.91
2023-06-10T10:16:13.165Z,100043.25
2023-06-10T10:18:43.256Z,100042.03
2023-06-10T10:21:14.209Z,100043.28
2023-06-10T10:24:06.691Z,100039.22
2023-06-10T10:26:34.333Z,100041.41
2023-06-10T10:29:06.863Z,100032.06
2023-06-10T10:31:36.062Z,100037.66
2023-06-10T10:34:07.887Z,100039.84
2023-06-10T10:36:37.254Z,100043.25
2023-06-10T10:39:05.842Z,100033.78
2023-06-10T10:41:33.823Z,100031.97
2023-06-10T10:44:01.979Z,100023.22
2023-06-10T10:46:28.792Z,100030.94
2023-06-10T10:48:56.694Z,100039.41
2023-06-10T10:51:25.167Z,100036.47
2023-06-10T10:54:11.636Z,100036.84
2023-06-10T10:56:38.651Z,100039.16
2023-06-10T10:59:06.546Z,100033.38
2023-06-10T11:01:43.779Z,100028.69
2023-06-10T11:04:10.951Z,100028.53
2023-06-10T11:06:38.142Z,100035.81
2023-06-10T11:09:31.173Z,100027.47
2023-06-10T11:12:02.398Z,100034.84
2023-06-10T11:14:31.242Z,100025.00
2023-06-10T11:16:59.280Z,100015.09
2023-06-10T11:19:37.171Z,100012.78
2023-06-10T11:22:07.161Z,100002.69
2023-06-10T11:24:34.532Z,100011.41
2023-06-10T11:27:40.569Z,100002.69
2023-06-10T11:30:08.821Z,100000.88
2023-06-10T11:32:36.619Z,100006.53
2023-06-10T11:35:09.162Z,100002.94
2023-06-10T11:37:36.482Z,99999.97
2023-06-10T11:40:04.280Z,99998.00
2023-06-10T11:42:31.282Z,99998.88
2023-06-10T11:44:58.353Z,99993.25
2023-06-10T11:47:25.235Z,99995.94
2023-06-10T11:49:58.672Z,99990.28
2023-06-10T11:52:32.468Z,99993.78
2023-06-10T11:54:59.308Z,99985.41
2023-06-10T11:57:26.154Z,99986.81
2023-06-10T11:59:52.947Z,99983.28
2023-06-10T12:02:20.540Z,99984.34
2023-06-10T12:04:47.633Z,99986.09
2023-06-10T12:07:21.096Z,99981.28
2023-06-10T12:09:48.202Z,99985.34
2023-06-10T12:12:15.258Z,99978.06
2023-06-10T12:15:03.989Z,99976.16
2023-06-10T12:17:33.725Z,99977.16
2023-06-10T12:20:02.275Z,99968.63
2023-06-10T12:22:38.000Z,99971.53
2023-06-10T12:25:07.875Z,99968.63
2023-06-10T12:27:36.428Z,99969.44
2023-06-10T12:30:05.907Z,99964.53
2023-06-10T12:32:53.684Z,99959.94
2023-06-10T12:35:22.982Z,99954.47
2023-06-10T12:38:12.294Z,99965.50
2023-06-10T12:40:44.068Z,99959.81
2023-06-10T12:43:11.029Z,99958.81
2023-06-10T12:45:44.517Z,99958.47
2023-06-10T12:48:13.854Z,99956.03
2023-06-10T12:50:42.570Z,99952.28
2023-06-10T12:53:10.781Z,99956.66
2023-06-10T12:55:37.622Z,99948.75
2023-06-10T12:58:04.766Z,99948.06
2023-06-10T13:00:31.974Z,99952.38
2023-06-10T13:03:02.279Z,99955.59
2023-06-10T13:05:30.738Z,99954.28
2023-06-10T13:07:57.546Z,99947.47
2023-06-10T13:10:25.971Z,99939.34
2023-06-10T13:12:55.771Z,99936.44
2023-06-10T13:15:22.993Z,99935.31
2023-06-10T13:17:52.992Z,99937.94
2023-06-10T13:20:21.848Z,99920.47
2023-06-10T13:22:48.941Z,99924.56
2023-06-10T13:25:16.606Z,99923.56
2023-06-10T13:27:43.986Z,99928.22
2023-06-10T13:30:12.111Z,99925.00
2023-06-10T13:32:39.699Z,99920.94
2023-06-10T13:35:09.057Z,99915.91
2023-06-10T13:37:36.570Z,99913.41
2023-06-10T13:40:04.052Z,99915.28
2023-06-10T13:42:33.974Z,99913.19
2023-06-10T13:45:01.163Z,99911.63
2023-06-10T13:47:28.005Z,99906.75
2023-06-10T13:49:54.815Z,99908.69
2023-06-10T13:52:21.593Z,99899.84
2023-06-10T13:54:48.648Z,99902.63
2023-06-10T13:57:15.538Z,99910.69
2023-06-10T13:59:42.288Z,99900.84
2023-06-10T14:02:09.820Z,99903.09
2023-06-10T14:04:36.606Z,99907.59
2023-06-10T14:07:03.418Z,99906.31
2023-06-10T14:09:30.974Z,99909.84
2023-06-10T14:11:57.723Z,99897.00
2023-06-10T14:14:24.597Z,99901.06
2023-06-10T14:16:51.367Z,99894.56
2023-06-10T14:19:18.175Z,99913.59
2023-06-10T14:21:44.991Z,99906.16
2023-06-10T14:24:11.875Z,99900.41
2023-06-10T14:26:38.656Z,99904.03
2023-06-10T14:29:05.409Z,99901.50
2023-06-10T14:31:32.208Z,99897.00
2023-06-10T14:33:58.982Z,99902.28
2023-06-10T14:36:26.822Z,99895.91
2023-06-10T14:38:54.857Z,99887.50
2023-06-10T14:41:23.400Z,99884.28
2023-06-10T14:43:50.290Z,99879.69
2023-06-10T14:46:17.228Z,99889.44
2023-06-10T14:48:44.067Z,99886.69
2023-06-10T14:51:10.888Z,99886.66
2023-06-10T14:53:37.868Z,99891.03
2023-06-10T14:56:05.175Z,99881.81
2023-06-10T14:58:32.024Z,99885.97
2023-06-10T15:00:58.814Z,99880.28
2023-06-10T15:03:25.561Z,99881.94
2023-06-10T15:05:52.383Z,99881.66
2023-06-10T15:08:19.474Z,99875.16
2023-06-10T15:10:46.256Z,99871.63
2023-06-10T15:13:13.130Z,99878.16
2023-06-10T15:15:40.042Z,99885.72
2023-06-10T15:18:06.875Z,99882.16
2023-06-10T15:20:33.680Z,99875.13
2023-06-10T15:23:00.658Z,99878.91
2023-06-10T15:25:31.539Z,99876.72
2023-06-10T15:27:59.207Z,99872.13
2023-06-10T15:30:26.226Z,99878.88
2023-06-10T15:32:54.395Z,99881.06
2023-06-10T15:35:21.445Z,99883.78
2023-06-10T15:37:48.525Z,99877.16
2023-06-10T15:40:15.399Z,99875.75
2023-06-10T15:42:42.382Z,99870.13
2023-06-10T15:45:09.888Z,99875.25
2023-06-10T15:47:36.909Z,99887.19
2023-06-10T15:50:03.915Z,99876.78
2023-06-10T15:52:30.612Z,99884.63
2023-06-10T15:54:57.422Z,99883.81
2023-06-10T15:57:26.858Z,99889.75
2023-06-10T15:59:54.784Z,99882.56
2023-06-10T16:02:21.846Z,99888.00
2023-06-10T16:04:48.802Z,99892.63
2023-06-10T16:07:15.490Z,99884.38
2023-06-10T16:09:42.249Z,99888.44
2023-06-10T16:12:09.528Z,99882.25
2023-06-10T16:14:36.366Z,99891.50
2023-06-10T16:17:03.515Z,99888.81
2023-06-10T16:19:30.771Z,99891.81
2023-06-10T16:21:57.505Z,99884.59
2023-06-10T16:24:24.725Z,99889.25
2023-06-10T16:26:51.928Z,99888.50
2023-06-10T16:29:18.942Z,99885.50
2023-06-10T16:31:45.854Z,99881.69
2023-06-10T16:34:12.757Z,99879.78
2023-06-10T16:36:40.373Z,99874.63
2023-06-10T16:39:07.287Z,99877.41
2023-06-10T16:41:34.364Z,99880.63
2023-06-10T16:44:03.840Z,99890.22
2023-06-10T16:46:31.349Z,99887.69
2023-06-10T16:48:58.158Z,99899.34
2023-06-10T16:51:25.020Z,99892.66
2023-06-10T16:53:51.958Z,99896.19
2023-06-10T16:56:18.739Z,99895.81
2023-06-10T16:58:45.559Z,99909.00
2023-06-10T17:01:12.253Z,99908.06
2023-06-10T17:03:39.346Z,99903.91
2023-06-10T17:06:06.313Z,99912.50
2023-06-10T17:08:33.055Z,99913.22
2023-06-10T17:10:59.805Z,99921.13
2023-06-10T17:13:26.622Z,99919.34
2023-06-10T17:15:53.682Z,99916.81
2023-06-10T17:18:20.575Z,99927.38
2023-06-10T17:20:47.415Z,99934.09
2023-06-10T17:23:14.205Z,99935.59
2023-06-10T17:25:41.252Z,99936.56
2023-06-10T17:28:07.985Z,99931.25
2023-06-10T17:30:34.907Z,99931.88
2023-06-10T17:33:01.669Z,99935.31
2023-06-10T17:37:55.075Z,99922.66
2023-06-10T17:40:22.019Z,99934.88
2023-06-10T17:42:48.805Z,99939.66
2023-06-10T17:45:15.871Z,99936.13
2023-06-10T17:47:42.761Z,99935.00
2023-06-10T17:50:09.863Z,99939.81
2023-06-10T17:52:36.798Z,99947.69
2023-06-10T17:55:03.929Z,99946.75
2023-06-10T17:57:32.560Z,99946.50
2023-06-10T17:59:59.848Z,99934.44
2023-06-10T18:02:26.810Z,99934.44
2023-06-10T18:04:53.597Z,99930.84
2023-06-10T18:07:20.445Z,99936.00
2023-06-10T18:09:47.201Z,99929.72
2023-06-10T18:12:14.048Z,99930.53
2023-06-10T18:14:40.868Z,99928.06
2023-06-10T18:17:07.844Z,99925.78
2023-06-10T18:19:34.632Z,99930.13
2023-06-10T18:22:01.564Z,99932.53
2023-06-10T18:24:28.371Z,99928.72
2023-06-10T18:26:55.176Z,99935.78
2023-06-10T18:29:21.923Z,99943.81
2023-06-10T18:31:49.241Z,99946.25
2023-06-10T18:34:16.099Z,99947.59
2023-06-10T18:36:42.978Z,99948.16
2023-06-10T18:39:09.767Z,99947.00
2023-06-10T18:41:36.491Z,99959.72
2023-06-10T18:44:03.352Z,99952.00
2023-06-10T18:46:30.534Z,99952.72
2023-06-10T18:48:57.500Z,99950.25
2023-06-10T18:51:24.335Z,99958.81
2023-06-10T18:53:51.016Z,99962.47
2023-06-10T18:56:17.801Z,99958.72
2023-06-10T18:58:47.691Z,99959.06
2023-06-10T19:01:14.728Z,99958.22
2023-06-10T19:03:41.572Z,99966.56
2023-06-10T19:06:08.575Z,99964.03
2023-06-10T19:08:35.416Z,99969.94
2023-06-10T19:11:03.134Z,99973.22
2023-06-10T19:13:30.245Z,99981.78
2023-06-10T19:15:57.136Z,99979.59
2023-06-10T19:18:23.965Z,99991.38
2023-06-10T19:20:51.483Z,99986.44
2023-06-10T19:23:18.518Z,99992.06
2023-06-10T19:25:45.380Z,99994.41
2023-06-10T19:28:12.328Z,99997.84
2023-06-10T19:30:39.494Z,100005.38
2023-06-10T19:33:07.956Z,100012.91
2023-06-10T19:35:36.306Z,100011.03
2023-06-10T19:38:03.233Z,100006.09
2023-06-10T19:40:29.952Z,100012.66
2023-06-10T19:42:58.528Z,100006.84
2023-06-10T19:45:25.599Z,100013.47
2023-06-10T19:47:52.614Z,100022.66
2023-06-10T19:50:19.466Z,100020.47
2023-06-10T19:52:49.013Z,100020.22
2023-06-10T19:55:16.048Z,100019.06
2023-06-10T19:57:42.777Z,100020.09
2023-06-10T20:00:10.949Z,100023.31
2023-06-10T20:02:41.180Z,100014.94
2023-06-10T20:05:08.497Z,100015.44
2023-06-10T20:07:35.688Z,100021.09
2023-06-10T20:10:02.476Z,100016.66
2023-06-10T20:12:29.337Z,100010.94
2023-06-10T20:14:56.110Z,100011.41
2023-06-10T20:17:22.950Z,100011.41
2023-06-10T20:19:53.693Z,100016.00
2023-06-10T20:22:21.263Z,100016.91
2023-06-10T20:24:48.709Z,100015.25
2023-06-10T20:27:15.784Z,100023.38
2023-06-10T20:29:42.996Z,100014.34
2023-06-10T20:32:09.939Z,100008.63
2023-06-10T20:34:36.808Z,100012.97
2023-06-10T20:37:04.873Z,100014.34
2023-06-10T20:39:31.643Z,100018.59
2023-06-10T20:41:58.472Z,100020.34
2023-06-10T20:44:25.630Z,100023.31
2023-06-10T20:46:52.397Z,100022.16
2023-06-10T20:49:19.145Z,100024.84
2023-06-10T20:51:46.062Z,100022.78
2023-06-10T20:54:12.875Z,100024.19
2023-06-10T20:56:39.662Z,100028.19
2023-06-10T20:59:06.462Z,100029.91
2023-06-10T21:01:33.267Z,100030.03
2023-06-10T21:04:00.135Z,100028.97
2023-06-10T21:06:27.991Z,100029.47
2023-06-10T21:08:54.802Z,100035.81
2023-06-10T21:11:22.578Z,100028.13
2023-06-10T21:13:49.350Z,100025.75
2023-06-10T21:16:16.838Z,100021.84
2023-06-10T21:18:43.595Z,100020.69
2023-06-10T21:21:10.555Z,100022.91
2023-06-10T21:23:37.331Z,100023.28
2023-06-10T21:26:06.486Z,100028.31
2023-06-10T21:28:33.504Z,100029.31
2023-06-10T21:31:00.409Z,100028.00
2023-06-10T21:33:27.873Z,100034.81
2023-06-10T21:35:54.924Z,100029.31
2023-06-10T21:38:24.163Z,100031.53
2023-06-10T21:40:55.167Z,100026.34
2023-06-10T21:43:21.989Z,100027.53
2023-06-10T21:45:48.724Z,100027.03
2023-06-10T21:48:16.041Z,100015.41
2023-06-10T21:50:42.782Z,100023.78
2023-06-10T21:53:09.545Z,100018.59
2023-06-10T21:55:36.320Z,100018.84
2023-06-10T21:58:03.206Z,100017.88
2023-06-10T22:00:30.055Z,100019.03
2023-06-10T22:02:56.930Z,100018.84
2023-06-10T22:05:24.283Z,100018.38
2023-06-10T22:07:51.776Z,100010.81
2023-06-10T22:10:18.574Z,100017.63
2023-06-10T22:12:45.491Z,100019.16
2023-06-10T22:15:12.742Z,100008.00
2023-06-10T22:17:42.963Z,100006.03
2023-06-10T22:20:10.361Z,100004.97
2023-06-10T22:22:37.461Z,99997.00
2023-06-10T22:25:04.649Z,100005.22
2023-06-10T22:27:31.322Z,100000.06
2023-06-10T22:29:58.355Z,100004.63
2023-06-10T22:32:25.146Z,100008.28
2023-06-10T22:34:51.854Z,100012.75
2023-06-10T22:37:18.714Z,100016.25
2023-06-10T22:39:45.479Z,100021.09
2023-06-10T22:42:12.239Z,100015.94
2023-06-10T22:44:39.231Z,100014.88
2023-06-10T22:47:06.455Z,100020.50
2023-06-10T22:49:33.134Z,100020.66
2023-06-10T22:51:59.868Z,100018.75
2023-06-10T22:54:27.854Z,100022.06
2023-06-10T22:56:55.129Z,100016.91
2023-06-10T22:59:22.008Z,100028.19
2023-06-10T23:01:48.834Z,100027.81
2023-06-10T23:04:15.953Z,100021.13
2023-06-10T23:06:42.951Z,100021.00
2023-06-10T23:09:11.070Z,100016.31
2023-06-10T23:11:38.423Z,100019.13
2023-06-10T23:14:05.194Z,100004.69
2023-06-10T23:16:31.927Z,100006.56
2023-06-10T23:18:59.830Z,100003.28
2023-06-10T23:21:29.803Z,100001.16
2023-06-10T23:26:24.813Z,99997.97
2023-06-10T23:28:51.700Z,99993.50
2023-06-10T23:31:18.584Z,99991.63
2023-06-10T23:33:46.934Z,99989.06
2023-06-10T23:36:15.180Z,99989.88
2023-06-10T23:38:42.223Z,99992.25
2023-06-10T23:41:08.958Z,99992.94
2023-06-10T23:43:35.749Z,99990.97
2023-06-10T23:46:02.522Z,99994.09
2023-06-10T23:48:29.285Z,99991.66
2023-06-10T23:50:56.339Z,99990.03
2023-06-10T23:53:23.159Z,99991.66
2023-06-10T23:55:49.879Z,99995.31
2023-06-10T23:58:16.626Z,99993.31
